RUNWAY INFORMATION
Runway Length Width Elevation Displaced
Threshold
Heading | Runway Length Width Elevation Displaced
Threshold
Heading
09 4800 ft 148 ft 303 ft 33 ft 88 | 27 4800 ft 148 ft 334 ft 33 ft 268

 AIRPORT FREQUENCIES
Type APP Name APP Frequency 128.65 MHZ
Type ATIS Name ATIS Frequency 109.4 MHZ
Type GND Name GND Frequency 121.8 MHZ
Type TWR Name TWR Frequency 119.95 MHZ

 AIRPORT NEAR NAVIGATION AIDS
Type NDB Name Guernsey Frequency 361 KHZ
Type VOR-DME Name Guernsey Frequency 109400 KHZ
Type NDB Name Guernsey Frequency 361 KHZ

 METAR AND TAF INFORMATION
METAR FOR EGJB
ADDS - METARS form results

(0730 UTC 15 June 2021)
Data provider http://aviationweather.gov/metar/data/
 
METAR text: EGJB 150720Z 34006KT CAVOK 16/13 Q1022
Conditions at: EGJB (GUERNSEY AIRPORT, GB) observed 0720 UTC 15 June 2021
Temperature: 16.0°C (61°F)
Dewpoint: 13.0°C (55°F) [RH = 82%]
Pressure (altimeter): 30.18 inches Hg (1022.0 mb)
Winds: from the NNW (340 degrees) at 7 MPH (6 knots; 3.1 m/s)
Visibility: 6 or more miles (10+ km)
Ceiling: ceiling and visibility are OK
Clouds: unknown
Weather: no significant weather observed at this time

METAR text: EGJB 150650Z 01005KT CAVOK 16/14 Q1022
Conditions at: EGJB (GUERNSEY AIRPORT, GB) observed 0650 UTC 15 June 2021
Temperature: 16.0°C (61°F)
Dewpoint: 14.0°C (57°F) [RH = 88%]
Pressure (altimeter): 30.18 inches Hg (1022.0 mb)
Winds: from the N (10 degrees) at 6 MPH (5 knots; 2.6 m/s)
Visibility: 6 or more miles (10+ km)
Ceiling: ceiling and visibility are OK
Clouds: unknown
Weather: no significant weather observed at this time

Forecast for: EGJB (GUERNSEY AIRPORT, GB)
Text: TAF EGJB 150503Z 1506/1515 36007KT CAVOK
Forecast period: 0600 to 1500 UTC 15 June 2021
Forecast type: FROM: standard forecast or significant change
Winds: from the N (360 degrees) at 8 MPH (7 knots; 3.6 m/s)
Visibility: 6 or more miles (10+ km)
Ceiling: unknown
Clouds: missing
Weather: NSW  (no significant weather)
Text: PROB40
Forecast period: 1000 to 1300 UTC 15 June 2021
Forecast type: TEMPORARY: The following changes expected for less than half the time period
Winds: variable direction winds at 6 MPH (5 knots; 2.6 m/s)
Visibility: missing
Ceiling: unknown
Clouds: missing
Weather: no significant weather forecast for this period



© 2013 - 2021, FlightSimLog.org - Powered by Virtual Airlines Manager